sensor_id;sensor_type;location;lat;lon;timestamp;temperature;humidity
16513;DHT22;8369;48.030;11.598;2023-03-14T00:01:24;9.70;99.90
16513;DHT22;8369;48.030;11.598;2023-03-14T00:03:51;9.70;99.90
16513;DHT22;8369;48.030;11.598;2023-03-14T00:06:20;9.60;99.90
16513;DHT22;8369;48.030;11.598;2023-03-14T00:08:47;9.60;99.90
16513;DHT22;8369;48.030;11.598;2023-03-14T00:18:40;9.50;99.90
16513;DHT22;8369;48.030;11.598;2023-03-14T00:21:08;9.40;99.90
16513;DHT22;8369;48.030;11.598;2023-03-14T00:23:37;9.40;99.90
16513;DHT22;8369;48.030;11.598;2023-03-14T00:26:14;9.40;99.90
16513;DHT22;8369;48.030;11.598;2023-03-14T00:28:41;9.30;99.90
16513;DHT22;8369;48.030;11.598;2023-03-14T00:31:11;9.30;99.90
16513;DHT22;8369;48.030;11.598;2023-03-14T00:33:38;9.30;99.90
16513;DHT22;8369;48.030;11.598;2023-03-14T00:36:07;9.20;99.90
16513;DHT22;8369;48.030;11.598;2023-03-14T00:38:38;9.30;99.90
16513;DHT22;8369;48.030;11.598;2023-03-14T00:41:08;9.30;99.90
16513;DHT22;8369;48.030;11.598;2023-03-14T00:43:36;9.30;99.90
16513;DHT22;8369;48.030;11.598;2023-03-14T00:46:04;9.30;99.90
16513;DHT22;8369;48.030;11.598;2023-03-14T00:48:32;9.20;99.90
16513;DHT22;8369;48.030;11.598;2023-03-14T00:50:59;9.20;99.90
16513;DHT22;8369;48.030;11.598;2023-03-14T00:53:26;9.20;99.90
16513;DHT22;8369;48.030;11.598;2023-03-14T00:55:53;9.20;99.90
16513;DHT22;8369;48.030;11.598;2023-03-14T00:58:30;9.20;99.90
16513;DHT22;8369;48.030;11.598;2023-03-14T01:01:04;9.20;99.90
16513;DHT22;8369;48.030;11.598;2023-03-14T01:03:35;9.20;99.90
16513;DHT22;8369;48.030;11.598;2023-03-14T01:06:11;9.20;99.90
16513;DHT22;8369;48.030;11.598;2023-03-14T01:08:39;9.20;99.90
16513;DHT22;8369;48.030;11.598;2023-03-14T01:11:12;9.20;99.90
16513;DHT22;8369;48.030;11.598;2023-03-14T01:13:38;9.20;99.90
16513;DHT22;8369;48.030;11.598;2023-03-14T01:16:07;9.20;99.90
16513;DHT22;8369;48.030;11.598;2023-03-14T01:18:38;9.20;99.90
16513;DHT22;8369;48.030;11.598;2023-03-14T01:21:14;9.20;99.90
16513;DHT22;8369;48.030;11.598;2023-03-14T01:23:42;9.20;99.90
16513;DHT22;8369;48.030;11.598;2023-03-14T01:26:19;9.20;99.90
16513;DHT22;8369;48.030;11.598;2023-03-14T01:28:47;9.20;99.90
16513;DHT22;8369;48.030;11.598;2023-03-14T01:31:14;9.20;99.90
16513;DHT22;8369;48.030;11.598;2023-03-14T01:33:40;9.20;99.90
16513;DHT22;8369;48.030;11.598;2023-03-14T01:36:08;9.20;99.90
16513;DHT22;8369;48.030;11.598;2023-03-14T01:38:37;9.20;99.90
16513;DHT22;8369;48.030;11.598;2023-03-14T01:41:07;9.20;99.90
16513;DHT22;8369;48.030;11.598;2023-03-14T01:43:34;9.20;99.90
16513;DHT22;8369;48.030;11.598;2023-03-14T01:51:27;9.20;99.90
16513;DHT22;8369;48.030;11.598;2023-03-14T01:54:04;9.20;99.90
16513;DHT22;8369;48.030;11.598;2023-03-14T01:56:34;9.20;99.90
16513;DHT22;8369;48.030;11.598;2023-03-14T01:59:04;9.20;99.90
16513;DHT22;8369;48.030;11.598;2023-03-14T02:01:32;9.10;99.90
16513;DHT22;8369;48.030;11.598;2023-03-14T02:04:02;9.10;99.90
16513;DHT22;8369;48.030;11.598;2023-03-14T02:06:41;9.10;99.90
16513;DHT22;8369;48.030;11.598;2023-03-14T02:09:20;9.10;99.90
16513;DHT22;8369;48.030;11.598;2023-03-14T02:11:47;9.10;99.90
16513;DHT22;8369;48.030;11.598;2023-03-14T02:14:21;9.10;99.90
16513;DHT22;8369;48.030;11.598;2023-03-14T02:16:50;9.10;99.90
16513;DHT22;8369;48.030;11.598;2023-03-14T02:19:25;9.00;99.90
16513;DHT22;8369;48.030;11.598;2023-03-14T02:22:07;9.10;99.90
16513;DHT22;8369;48.030;11.598;2023-03-14T02:27:25;9.10;99.90
16513;DHT22;8369;48.030;11.598;2023-03-14T02:32:27;9.00;99.90
16513;DHT22;8369;48.030;11.598;2023-03-14T02:34:58;9.00;99.90
16513;DHT22;8369;48.030;11.598;2023-03-14T02:37:53;9.00;99.90
16513;DHT22;8369;48.030;11.598;2023-03-14T02:40:19;9.00;99.90
16513;DHT22;8369;48.030;11.598;2023-03-14T02:42:46;9.00;99.90
16513;DHT22;8369;48.030;11.598;2023-03-14T02:47:51;8.90;99.90
16513;DHT22;8369;48.030;11.598;2023-03-14T02:50:24;8.90;99.90
16513;DHT22;8369;48.030;11.598;2023-03-14T02:52:54;8.80;99.90
16513;DHT22;8369;48.030;11.598;2023-03-14T02:55:22;8.80;99.90
16513;DHT22;8369;48.030;11.598;2023-03-14T02:57:50;8.80;99.90
16513;DHT22;8369;48.030;11.598;2023-03-14T03:00:19;8.80;99.90
16513;DHT22;8369;48.030;11.598;2023-03-14T03:02:47;8.80;99.90
16513;DHT22;8369;48.030;11.598;2023-03-14T03:05:16;8.80;99.90
16513;DHT22;8369;48.030;11.598;2023-03-14T03:07:42;8.70;99.90
16513;DHT22;8369;48.030;11.598;2023-03-14T03:10:12;8.80;99.90
16513;DHT22;8369;48.030;11.598;2023-03-14T03:12:39;8.80;99.90
16513;DHT22;8369;48.030;11.598;2023-03-14T03:15:09;8.80;99.90
16513;DHT22;8369;48.030;11.598;2023-03-14T03:17:35;8.80;99.90
16513;DHT22;8369;48.030;11.598;2023-03-14T03:20:07;8.70;99.90
16513;DHT22;8369;48.030;11.598;2023-03-14T03:22:36;8.70;99.90
16513;DHT22;8369;48.030;11.598;2023-03-14T03:25:04;8.70;99.90
16513;DHT22;8369;48.030;11.598;2023-03-14T03:27:32;8.60;99.90
16513;DHT22;8369;48.030;11.598;2023-03-14T03:29:59;8.60;99.90
16513;DHT22;8369;48.030;11.598;2023-03-14T03:32:25;8.60;99.90
16513;DHT22;8369;48.030;11.598;2023-03-14T03:34:52;8.60;99.90
16513;DHT22;8369;48.030;11.598;2023-03-14T03:37:18;8.60;99.90
16513;DHT22;8369;48.030;11.598;2023-03-14T03:39:45;8.60;99.90
16513;DHT22;8369;48.030;11.598;2023-03-14T03:42:10;8.60;99.90
16513;DHT22;8369;48.030;11.598;2023-03-14T03:44:36;8.60;99.90
16513;DHT22;8369;48.030;11.598;2023-03-14T03:47:02;8.60;99.90
16513;DHT22;8369;48.030;11.598;2023-03-14T03:49:29;8.50;99.90
16513;DHT22;8369;48.030;11.598;2023-03-14T03:51:55;8.50;99.90
16513;DHT22;8369;48.030;11.598;2023-03-14T03:54:21;8.50;99.90
16513;DHT22;8369;48.030;11.598;2023-03-14T03:56:47;8.50;99.90
16513;DHT22;8369;48.030;11.598;2023-03-14T03:59:13;8.40;99.90
16513;DHT22;8369;48.030;11.598;2023-03-14T04:01:39;8.40;99.90
16513;DHT22;8369;48.030;11.598;2023-03-14T04:04:06;8.40;99.90
16513;DHT22;8369;48.030;11.598;2023-03-14T04:06:33;8.40;99.90
16513;DHT22;8369;48.030;11.598;2023-03-14T04:08:59;8.40;99.90
16513;DHT22;8369;48.030;11.598;2023-03-14T04:11:25;8.30;99.90
16513;DHT22;8369;48.030;11.598;2023-03-14T04:13:50;8.30;99.90
16513;DHT22;8369;48.030;11.598;2023-03-14T04:16:22;8.30;99.90
16513;DHT22;8369;48.030;11.598;2023-03-14T04:18:48;8.30;99.90
16513;DHT22;8369;48.030;11.598;2023-03-14T04:21:15;8.30;99.90
16513;DHT22;8369;48.030;11.598;2023-03-14T04:23:41;8.30;99.90
16513;DHT22;8369;48.030;11.598;2023-03-14T04:26:07;8.20;99.90
16513;DHT22;8369;48.030;11.598;2023-03-14T04:28:33;8.30;99.90
16513;DHT22;8369;48.030;11.598;2023-03-14T04:31:14;8.30;99.90
16513;DHT22;8369;48.030;11.598;2023-03-14T04:33:40;8.20;99.90
16513;DHT22;8369;48.030;11.598;2023-03-14T04:36:10;8.20;99.90
16513;DHT22;8369;48.030;11.598;2023-03-14T04:38:36;8.20;99.90
16513;DHT22;8369;48.030;11.598;2023-03-14T04:41:03;8.20;99.90
16513;DHT22;8369;48.030;11.598;2023-03-14T04:43:29;8.10;99.90
16513;DHT22;8369;48.030;11.598;2023-03-14T04:45:57;8.20;99.90
16513;DHT22;8369;48.030;11.598;2023-03-14T04:48:24;8.10;99.90
16513;DHT22;8369;48.030;11.598;2023-03-14T04:50:50;8.10;99.90
16513;DHT22;8369;48.030;11.598;2023-03-14T04:53:17;8.10;99.90
16513;DHT22;8369;48.030;11.598;2023-03-14T04:55:50;8.20;99.90
16513;DHT22;8369;48.030;11.598;2023-03-14T04:58:17;8.10;99.90
16513;DHT22;8369;48.030;11.598;2023-03-14T05:00:44;8.10;99.90
16513;DHT22;8369;48.030;11.598;2023-03-14T05:03:10;8.10;99.90
16513;DHT22;8369;48.030;11.598;2023-03-14T05:05:36;8.10;99.90
16513;DHT22;8369;48.030;11.598;2023-03-14T05:08:03;8.10;99.90
16513;DHT22;8369;48.030;11.598;2023-03-14T05:10:30;8.10;99.90
16513;DHT22;8369;48.030;11.598;2023-03-14T05:12:56;8.00;99.90
16513;DHT22;8369;48.030;11.598;2023-03-14T05:15:22;8.00;99.90
16513;DHT22;8369;48.030;11.598;2023-03-14T05:17:48;8.00;99.90
16513;DHT22;8369;48.030;11.598;2023-03-14T05:20:15;8.00;99.90
16513;DHT22;8369;48.030;11.598;2023-03-14T05:22:41;8.00;99.90
16513;DHT22;8369;48.030;11.598;2023-03-14T05:25:08;8.00;99.90
16513;DHT22;8369;48.030;11.598;2023-03-14T05:27:35;8.00;99.90
16513;DHT22;8369;48.030;11.598;2023-03-14T05:30:02;8.00;99.90
16513;DHT22;8369;48.030;11.598;2023-03-14T05:32:28;8.00;99.90
16513;DHT22;8369;48.030;11.598;2023-03-14T05:34:54;7.90;99.90
16513;DHT22;8369;48.030;11.598;2023-03-14T05:37:25;8.00;99.90
16513;DHT22;8369;48.030;11.598;2023-03-14T05:39:51;7.90;99.90
16513;DHT22;8369;48.030;11.598;2023-03-14T05:42:17;8.00;99.90
16513;DHT22;8369;48.030;11.598;2023-03-14T05:44:43;7.90;99.90
16513;DHT22;8369;48.030;11.598;2023-03-14T05:47:15;7.90;99.90
16513;DHT22;8369;48.030;11.598;2023-03-14T05:49:41;7.90;99.90
16513;DHT22;8369;48.030;11.598;2023-03-14T05:52:08;7.90;99.90
16513;DHT22;8369;48.030;11.598;2023-03-14T05:54:34;7.90;99.90
16513;DHT22;8369;48.030;11.598;2023-03-14T05:57:00;7.90;99.90
16513;DHT22;8369;48.030;11.598;2023-03-14T05:59:26;7.90;99.90
16513;DHT22;8369;48.030;11.598;2023-03-14T06:01:52;7.90;99.90
16513;DHT22;8369;48.030;11.598;2023-03-14T06:04:19;7.90;99.90
16513;DHT22;8369;48.030;11.598;2023-03-14T06:06:46;7.90;99.90
16513;DHT22;8369;48.030;11.598;2023-03-14T06:09:13;7.90;99.90
16513;DHT22;8369;48.030;11.598;2023-03-14T06:11:39;7.90;99.90
16513;DHT22;8369;48.030;11.598;2023-03-14T06:14:06;7.90;99.90
16513;DHT22;8369;48.030;11.598;2023-03-14T06:16:33;7.90;99.90
16513;DHT22;8369;48.030;11.598;2023-03-14T06:19:00;7.80;99.90
16513;DHT22;8369;48.030;11.598;2023-03-14T06:21:29;7.90;99.90
16513;DHT22;8369;48.030;11.598;2023-03-14T06:23:55;7.80;99.90
16513;DHT22;8369;48.030;11.598;2023-03-14T06:26:21;7.80;99.90
16513;DHT22;8369;48.030;11.598;2023-03-14T06:28:50;7.80;99.90
16513;DHT22;8369;48.030;11.598;2023-03-14T06:31:18;7.80;99.90
16513;DHT22;8369;48.030;11.598;2023-03-14T06:33:44;7.80;99.90
16513;DHT22;8369;48.030;11.598;2023-03-14T06:36:11;7.80;99.90
16513;DHT22;8369;48.030;11.598;2023-03-14T06:38:37;7.80;99.90
16513;DHT22;8369;48.030;11.598;2023-03-14T06:41:07;7.80;99.90
16513;DHT22;8369;48.030;11.598;2023-03-14T06:43:36;7.80;99.90
16513;DHT22;8369;48.030;11.598;2023-03-14T06:46:05;7.80;99.90
16513;DHT22;8369;48.030;11.598;2023-03-14T06:48:31;7.80;99.90
16513;DHT22;8369;48.030;11.598;2023-03-14T06:50:57;7.80;99.90
16513;DHT22;8369;48.030;11.598;2023-03-14T06:53:25;7.80;99.90
16513;DHT22;8369;48.030;11.598;2023-03-14T06:55:51;7.90;99.90
16513;DHT22;8369;48.030;11.598;2023-03-14T06:58:42;7.90;99.90
16513;DHT22;8369;48.030;11.598;2023-03-14T07:01:24;7.90;99.90
16513;DHT22;8369;48.030;11.598;2023-03-14T07:03:52;7.90;99.90
16513;DHT22;8369;48.030;11.598;2023-03-14T07:06:18;7.90;99.90
16513;DHT22;8369;48.030;11.598;2023-03-14T07:08:46;7.90;99.90
16513;DHT22;8369;48.030;11.598;2023-03-14T07:11:13;7.90;99.90
16513;DHT22;8369;48.030;11.598;2023-03-14T07:13:39;7.90;99.90
16513;DHT22;8369;48.030;11.598;2023-03-14T07:16:08;7.90;99.90
16513;DHT22;8369;48.030;11.598;2023-03-14T07:18:34;8.00;99.90
16513;DHT22;8369;48.030;11.598;2023-03-14T07:21:03;8.00;99.90
16513;DHT22;8369;48.030;11.598;2023-03-14T07:23:29;8.00;99.90
16513;DHT22;8369;48.030;11.598;2023-03-14T07:25:56;8.00;99.90
16513;DHT22;8369;48.030;11.598;2023-03-14T07:28:23;8.00;99.90
16513;DHT22;8369;48.030;11.598;2023-03-14T07:30:50;8.00;99.90
16513;DHT22;8369;48.030;11.598;2023-03-14T07:33:16;8.00;99.90
16513;DHT22;8369;48.030;11.598;2023-03-14T07:35:42;8.00;99.90
16513;DHT22;8369;48.030;11.598;2023-03-14T07:38:11;8.10;99.90
16513;DHT22;8369;48.030;11.598;2023-03-14T07:40:37;8.20;99.90
16513;DHT22;8369;48.030;11.598;2023-03-14T07:43:03;8.20;99.90
16513;DHT22;8369;48.030;11.598;2023-03-14T07:45:30;8.30;99.90
16513;DHT22;8369;48.030;11.598;2023-03-14T07:47:57;8.30;99.90
16513;DHT22;8369;48.030;11.598;2023-03-14T07:50:26;8.30;99.90
16513;DHT22;8369;48.030;11.598;2023-03-14T07:52:53;8.30;99.90
16513;DHT22;8369;48.030;11.598;2023-03-14T07:55:19;8.40;99.90
16513;DHT22;8369;48.030;11.598;2023-03-14T07:57:48;8.40;99.90
16513;DHT22;8369;48.030;11.598;2023-03-14T08:00:14;8.40;99.90
16513;DHT22;8369;48.030;11.598;2023-03-14T08:02:43;8.50;99.90
16513;DHT22;8369;48.030;11.598;2023-03-14T08:05:09;8.50;99.90
16513;DHT22;8369;48.030;11.598;2023-03-14T08:07:39;8.60;99.90
16513;DHT22;8369;48.030;11.598;2023-03-14T08:10:05;8.60;99.90
16513;DHT22;8369;48.030;11.598;2023-03-14T08:12:31;8.60;99.90
16513;DHT22;8369;48.030;11.598;2023-03-14T08:14:57;8.70;99.90
16513;DHT22;8369;48.030;11.598;2023-03-14T08:17:25;8.70;99.90
16513;DHT22;8369;48.030;11.598;2023-03-14T08:19:54;8.70;99.90
16513;DHT22;8369;48.030;11.598;2023-03-14T08:22:20;8.80;99.90
16513;DHT22;8369;48.030;11.598;2023-03-14T08:24:46;8.80;99.90
16513;DHT22;8369;48.030;11.598;2023-03-14T08:27:12;8.80;99.90
16513;DHT22;8369;48.030;11.598;2023-03-14T08:29:39;8.80;99.90
16513;DHT22;8369;48.030;11.598;2023-03-14T08:32:07;8.80;99.90
16513;DHT22;8369;48.030;11.598;2023-03-14T08:34:33;8.90;99.90
16513;DHT22;8369;48.030;11.598;2023-03-14T08:37:00;8.90;99.90
16513;DHT22;8369;48.030;11.598;2023-03-14T08:39:30;8.90;99.90
16513;DHT22;8369;48.030;11.598;2023-03-14T08:41:58;9.00;99.90
16513;DHT22;8369;48.030;11.598;2023-03-14T08:44:24;9.00;99.90
16513;DHT22;8369;48.030;11.598;2023-03-14T08:46:51;9.00;99.90
16513;DHT22;8369;48.030;11.598;2023-03-14T08:49:18;9.00;99.90
16513;DHT22;8369;48.030;11.598;2023-03-14T08:51:49;9.00;99.90
16513;DHT22;8369;48.030;11.598;2023-03-14T08:54:16;9.10;99.90
16513;DHT22;8369;48.030;11.598;2023-03-14T08:56:44;9.10;99.90
16513;DHT22;8369;48.030;11.598;2023-03-14T08:59:10;9.10;99.90
16513;DHT22;8369;48.030;11.598;2023-03-14T09:01:37;9.10;99.90
16513;DHT22;8369;48.030;11.598;2023-03-14T09:04:06;9.10;99.90
16513;DHT22;8369;48.030;11.598;2023-03-14T09:06:34;9.10;99.90
16513;DHT22;8369;48.030;11.598;2023-03-14T09:09:01;9.10;99.90
16513;DHT22;8369;48.030;11.598;2023-03-14T09:11:28;9.10;99.90
16513;DHT22;8369;48.030;11.598;2023-03-14T09:13:56;9.10;99.90
16513;DHT22;8369;48.030;11.598;2023-03-14T09:16:24;9.10;99.90
16513;DHT22;8369;48.030;11.598;2023-03-14T09:18:53;9.10;99.90
16513;DHT22;8369;48.030;11.598;2023-03-14T09:21:21;9.10;99.90
16513;DHT22;8369;48.030;11.598;2023-03-14T09:23:47;9.10;99.90
16513;DHT22;8369;48.030;11.598;2023-03-14T09:26:14;9.10;99.90
16513;DHT22;8369;48.030;11.598;2023-03-14T09:28:41;9.10;99.90
16513;DHT22;8369;48.030;11.598;2023-03-14T09:31:09;9.10;99.90
16513;DHT22;8369;48.030;11.598;2023-03-14T09:33:37;9.10;99.90
16513;DHT22;8369;48.030;11.598;2023-03-14T09:36:04;9.10;99.90
16513;DHT22;8369;48.030;11.598;2023-03-14T09:38:31;9.10;99.90
16513;DHT22;8369;48.030;11.598;2023-03-14T09:41:01;9.10;99.90
16513;DHT22;8369;48.030;11.598;2023-03-14T09:43:31;9.00;99.90
16513;DHT22;8369;48.030;11.598;2023-03-14T09:46:01;9.00;99.90
16513;DHT22;8369;48.030;11.598;2023-03-14T09:48:32;9.00;99.90
16513;DHT22;8369;48.030;11.598;2023-03-14T09:51:03;9.00;99.90
16513;DHT22;8369;48.030;11.598;2023-03-14T09:53:45;9.00;99.90
16513;DHT22;8369;48.030;11.598;2023-03-14T09:56:25;9.00;99.90
16513;DHT22;8369;48.030;11.598;2023-03-14T09:58:56;9.00;99.90
16513;DHT22;8369;48.030;11.598;2023-03-14T10:01:29;9.00;99.90
16513;DHT22;8369;48.030;11.598;2023-03-14T10:04:00;9.00;99.90
16513;DHT22;8369;48.030;11.598;2023-03-14T10:06:30;9.10;99.90
16513;DHT22;8369;48.030;11.598;2023-03-14T10:09:30;9.10;99.90
16513;DHT22;8369;48.030;11.598;2023-03-14T10:11:58;9.10;99.90
16513;DHT22;8369;48.030;11.598;2023-03-14T10:14:37;9.20;99.90
16513;DHT22;8369;48.030;11.598;2023-03-14T10:17:12;9.20;99.90
16513;DHT22;8369;48.030;11.598;2023-03-14T10:19:59;9.30;99.90
16513;DHT22;8369;48.030;11.598;2023-03-14T10:22:30;9.40;99.90
16513;DHT22;8369;48.030;11.598;2023-03-14T10:25:04;9.40;99.90
16513;DHT22;8369;48.030;11.598;2023-03-14T10:27:33;9.50;99.90
16513;DHT22;8369;48.030;11.598;2023-03-14T10:30:04;9.70;99.90
16513;DHT22;8369;48.030;11.598;2023-03-14T10:32:39;9.80;99.90
16513;DHT22;8369;48.030;11.598;2023-03-14T10:37:57;10.10;99.90
16513;DHT22;8369;48.030;11.598;2023-03-14T10:40:37;10.20;99.90
16513;DHT22;8369;48.030;11.598;2023-03-14T10:43:11;10.40;99.90
16513;DHT22;8369;48.030;11.598;2023-03-14T10:45:43;10.50;99.90
16513;DHT22;8369;48.030;11.598;2023-03-14T10:51:19;10.70;99.90
16513;DHT22;8369;48.030;11.598;2023-03-14T10:54:11;10.90;99.90
16513;DHT22;8369;48.030;11.598;2023-03-14T10:56:40;11.00;99.90
16513;DHT22;8369;48.030;11.598;2023-03-14T10:59:12;11.10;99.90
16513;DHT22;8369;48.030;11.598;2023-03-14T11:02:10;11.30;99.90
16513;DHT22;8369;48.030;11.598;2023-03-14T11:07:25;11.50;99.90
16513;DHT22;8369;48.030;11.598;2023-03-14T11:13:25;11.80;99.90
16513;DHT22;8369;48.030;11.598;2023-03-14T11:19:42;12.10;99.90
16513;DHT22;8369;48.030;11.598;2023-03-14T11:22:24;12.10;99.90
16513;DHT22;8369;48.030;11.598;2023-03-14T11:30:34;12.00;99.90
16513;DHT22;8369;48.030;11.598;2023-03-14T11:36:09;12.00;99.90
16513;DHT22;8369;48.030;11.598;2023-03-14T11:41:19;12.00;99.90
16513;DHT22;8369;48.030;11.598;2023-03-14T11:43:48;12.10;99.90
16513;DHT22;8369;48.030;11.598;2023-03-14T11:46:38;12.20;99.90
16513;DHT22;8369;48.030;11.598;2023-03-14T11:51:43;12.40;99.90
16513;DHT22;8369;48.030;11.598;2023-03-14T11:57:01;12.50;99.90
16513;DHT22;8369;48.030;11.598;2023-03-14T11:59:52;12.60;99.90
16513;DHT22;8369;48.030;11.598;2023-03-14T12:02:54;12.50;99.90
16513;DHT22;8369;48.030;11.598;2023-03-14T12:11:18;12.50;99.90
16513;DHT22;8369;48.030;11.598;2023-03-14T12:13:53;12.50;99.90
16513;DHT22;8369;48.030;11.598;2023-03-14T12:16:34;12.70;99.90
16513;DHT22;8369;48.030;11.598;2023-03-14T12:19:34;12.70;99.90
16513;DHT22;8369;48.030;11.598;2023-03-14T12:24:49;12.60;99.90
16513;DHT22;8369;48.030;11.598;2023-03-14T12:27:49;12.60;99.90
16513;DHT22;8369;48.030;11.598;2023-03-14T12:30:58;12.60;99.90
16513;DHT22;8369;48.030;11.598;2023-03-14T12:35:51;12.60;99.90
16513;DHT22;8369;48.030;11.598;2023-03-14T12:43:38;12.60;99.90
16513;DHT22;8369;48.030;11.598;2023-03-14T12:46:08;12.70;99.90
16513;DHT22;8369;48.030;11.598;2023-03-14T12:48:40;12.60;99.90
16513;DHT22;8369;48.030;11.598;2023-03-14T12:51:20;12.60;99.90
16513;DHT22;8369;48.030;11.598;2023-03-14T12:54:06;12.50;99.90
16513;DHT22;8369;48.030;11.598;2023-03-14T12:59:36;12.50;99.90
16513;DHT22;8369;48.030;11.598;2023-03-14T13:09:53;12.30;99.90
16513;DHT22;8369;48.030;11.598;2023-03-14T13:12:25;12.30;99.90
16513;DHT22;8369;48.030;11.598;2023-03-14T13:14:59;12.20;99.90
16513;DHT22;8369;48.030;11.598;2023-03-14T13:17:31;12.10;99.90
16513;DHT22;8369;48.030;11.598;2023-03-14T13:20:44;12.20;99.90
16513;DHT22;8369;48.030;11.598;2023-03-14T13:22:50;12.10;99.90
16513;DHT22;8369;48.030;11.598;2023-03-14T13:25:18;12.10;99.90
16513;DHT22;8369;48.030;11.598;2023-03-14T13:27:47;12.10;99.90
16513;DHT22;8369;48.030;11.598;2023-03-14T13:30:26;12.10;99.90
16513;DHT22;8369;48.030;11.598;2023-03-14T13:32:54;12.10;99.90
16513;DHT22;8369;48.030;11.598;2023-03-14T13:35:29;12.00;99.90
16513;DHT22;8369;48.030;11.598;2023-03-14T13:38:00;12.00;99.90
16513;DHT22;8369;48.030;11.598;2023-03-14T13:40:32;12.00;99.90
16513;DHT22;8369;48.030;11.598;2023-03-14T13:43:05;11.90;99.90
16513;DHT22;8369;48.030;11.598;2023-03-14T13:45:43;11.90;99.90
16513;DHT22;8369;48.030;11.598;2023-03-14T13:48:11;11.90;99.90
16513;DHT22;8369;48.030;11.598;2023-03-14T13:53:48;11.60;99.90
16513;DHT22;8369;48.030;11.598;2023-03-14T13:56:16;11.40;99.90
16513;DHT22;8369;48.030;11.598;2023-03-14T13:58:42;11.00;99.90
16513;DHT22;8369;48.030;11.598;2023-03-14T14:01:18;10.90;99.90
16513;DHT22;8369;48.030;11.598;2023-03-14T14:03:52;10.70;99.90
16513;DHT22;8369;48.030;11.598;2023-03-14T14:06:32;10.40;99.90
16513;DHT22;8369;48.030;11.598;2023-03-14T14:09:02;10.10;99.90
16513;DHT22;8369;48.030;11.598;2023-03-14T14:11:37;10.10;99.90
16513;DHT22;8369;48.030;11.598;2023-03-14T14:14:06;10.00;99.90
16513;DHT22;8369;48.030;11.598;2023-03-14T14:16:35;9.80;99.90
16513;DHT22;8369;48.030;11.598;2023-03-14T14:19:02;9.80;99.90
16513;DHT22;8369;48.030;11.598;2023-03-14T14:21:28;9.70;99.90
16513;DHT22;8369;48.030;11.598;2023-03-14T14:23:55;9.50;99.90
16513;DHT22;8369;48.030;11.598;2023-03-14T14:26:21;9.40;99.90
16513;DHT22;8369;48.030;11.598;2023-03-14T14:28:46;9.30;99.90
16513;DHT22;8369;48.030;11.598;2023-03-14T14:33:46;9.20;99.90
16513;DHT22;8369;48.030;11.598;2023-03-14T14:36:23;9.10;99.90
16513;DHT22;8369;48.030;11.598;2023-03-14T14:38:57;9.00;99.90
16513;DHT22;8369;48.030;11.598;2023-03-14T14:41:27;8.90;99.90
16513;DHT22;8369;48.030;11.598;2023-03-14T14:43:55;8.80;99.90
16513;DHT22;8369;48.030;11.598;2023-03-14T14:46:21;8.70;99.90
16513;DHT22;8369;48.030;11.598;2023-03-14T14:48:47;8.60;99.90
16513;DHT22;8369;48.030;11.598;2023-03-14T14:51:31;8.50;99.90
16513;DHT22;8369;48.030;11.598;2023-03-14T14:54:11;8.50;99.90
16513;DHT22;8369;48.030;11.598;2023-03-14T14:56:37;8.30;99.90
16513;DHT22;8369;48.030;11.598;2023-03-14T14:59:04;8.30;99.90
16513;DHT22;8369;48.030;11.598;2023-03-14T15:01:34;8.10;99.90
16513;DHT22;8369;48.030;11.598;2023-03-14T15:04:01;8.10;99.90
16513;DHT22;8369;48.030;11.598;2023-03-14T15:06:30;8.10;99.90
16513;DHT22;8369;48.030;11.598;2023-03-14T15:08:57;8.10;99.90
16513;DHT22;8369;48.030;11.598;2023-03-14T15:11:25;8.20;99.90
16513;DHT22;8369;48.030;11.598;2023-03-14T15:13:52;8.10;99.90
16513;DHT22;8369;48.030;11.598;2023-03-14T15:16:28;8.10;99.90
16513;DHT22;8369;48.030;11.598;2023-03-14T15:18:57;8.00;99.90
16513;DHT22;8369;48.030;11.598;2023-03-14T15:21:25;8.00;99.90
16513;DHT22;8369;48.030;11.598;2023-03-14T15:23:51;8.00;99.90
16513;DHT22;8369;48.030;11.598;2023-03-14T15:26:20;8.00;99.90
16513;DHT22;8369;48.030;11.598;2023-03-14T15:28:47;8.00;99.90
16513;DHT22;8369;48.030;11.598;2023-03-14T15:31:14;8.00;99.90
16513;DHT22;8369;48.030;11.598;2023-03-14T15:33:41;8.10;99.90
16513;DHT22;8369;48.030;11.598;2023-03-14T15:36:25;8.10;99.90
16513;DHT22;8369;48.030;11.598;2023-03-14T15:38:54;8.00;99.90
16513;DHT22;8369;48.030;11.598;2023-03-14T15:41:20;8.10;99.90
16513;DHT22;8369;48.030;11.598;2023-03-14T15:43:49;8.00;99.90
16513;DHT22;8369;48.030;11.598;2023-03-14T15:46:16;8.20;99.90
16513;DHT22;8369;48.030;11.598;2023-03-14T15:48:44;8.00;99.90
16513;DHT22;8369;48.030;11.598;2023-03-14T15:51:10;8.10;99.90
16513;DHT22;8369;48.030;11.598;2023-03-14T15:53:37;8.00;99.90
16513;DHT22;8369;48.030;11.598;2023-03-14T15:56:09;8.00;99.90
16513;DHT22;8369;48.030;11.598;2023-03-14T15:58:36;8.00;99.90
16513;DHT22;8369;48.030;11.598;2023-03-14T16:01:02;7.90;99.90
16513;DHT22;8369;48.030;11.598;2023-03-14T16:03:31;7.90;99.90
16513;DHT22;8369;48.030;11.598;2023-03-14T16:05:56;7.80;99.90
16513;DHT22;8369;48.030;11.598;2023-03-14T16:08:23;7.70;99.90
16513;DHT22;8369;48.030;11.598;2023-03-14T16:10:51;7.70;99.90
16513;DHT22;8369;48.030;11.598;2023-03-14T16:13:18;7.60;99.90
16513;DHT22;8369;48.030;11.598;2023-03-14T16:15:53;7.60;99.90
16513;DHT22;8369;48.030;11.598;2023-03-14T16:18:18;7.70;99.90
16513;DHT22;8369;48.030;11.598;2023-03-14T16:20:51;7.50;99.90
16513;DHT22;8369;48.030;11.598;2023-03-14T16:23:17;7.50;99.90
16513;DHT22;8369;48.030;11.598;2023-03-14T16:25:44;7.60;99.90
16513;DHT22;8369;48.030;11.598;2023-03-14T16:28:10;7.50;99.90
16513;DHT22;8369;48.030;11.598;2023-03-14T16:30:35;7.50;99.90
16513;DHT22;8369;48.030;11.598;2023-03-14T16:33:01;7.50;99.90
16513;DHT22;8369;48.030;11.598;2023-03-14T16:35:28;7.50;99.90
16513;DHT22;8369;48.030;11.598;2023-03-14T16:37:53;7.40;99.90
16513;DHT22;8369;48.030;11.598;2023-03-14T16:40:19;7.40;99.90
16513;DHT22;8369;48.030;11.598;2023-03-14T16:42:45;7.50;99.90
16513;DHT22;8369;48.030;11.598;2023-03-14T16:45:11;7.50;99.90
16513;DHT22;8369;48.030;11.598;2023-03-14T16:47:37;7.50;99.90
16513;DHT22;8369;48.030;11.598;2023-03-14T16:50:03;7.40;99.90
16513;DHT22;8369;48.030;11.598;2023-03-14T16:52:28;7.30;99.90
16513;DHT22;8369;48.030;11.598;2023-03-14T16:54:54;7.30;99.90
16513;DHT22;8369;48.030;11.598;2023-03-14T16:57:20;7.30;99.90
16513;DHT22;8369;48.030;11.598;2023-03-14T16:59:46;7.30;99.90
16513;DHT22;8369;48.030;11.598;2023-03-14T17:02:12;7.20;99.90
16513;DHT22;8369;48.030;11.598;2023-03-14T17:04:39;7.10;99.90
16513;DHT22;8369;48.030;11.598;2023-03-14T17:07:07;7.10;99.90
16513;DHT22;8369;48.030;11.598;2023-03-14T17:09:33;7.10;99.90
16513;DHT22;8369;48.030;11.598;2023-03-14T17:11:59;6.90;99.90
16513;DHT22;8369;48.030;11.598;2023-03-14T17:14:24;6.90;99.90
16513;DHT22;8369;48.030;11.598;2023-03-14T17:16:51;6.90;99.90
16513;DHT22;8369;48.030;11.598;2023-03-14T17:19:17;6.80;99.90
16513;DHT22;8369;48.030;11.598;2023-03-14T17:21:44;6.70;99.90
16513;DHT22;8369;48.030;11.598;2023-03-14T17:24:10;6.80;99.90